sensor_id;sensor_type;location;lat;lon;timestamp;P1;durP1;ratioP1;P2;durP2;ratioP2
70997;SDS011;58663;52.040;4.634;2023-07-31T00:01:23;49.33;;;10.90;;
70997;SDS011;58663;52.040;4.634;2023-07-31T00:03:49;54.03;;;11.13;;
70997;SDS011;58663;52.040;4.634;2023-07-31T00:06:14;60.95;;;11.50;;
70997;SDS011;58663;52.040;4.634;2023-07-31T00:08:39;51.78;;;8.80;;
70997;SDS011;58663;52.040;4.634;2023-07-31T00:11:05;46.25;;;9.38;;
70997;SDS011;58663;52.040;4.634;2023-07-31T00:13:30;39.00;;;8.88;;
70997;SDS011;58663;52.040;4.634;2023-07-31T00:15:55;46.35;;;8.95;;
70997;SDS011;58663;52.040;4.634;2023-07-31T00:18:21;45.47;;;9.45;;
70997;SDS011;58663;52.040;4.634;2023-07-31T00:20:46;41.63;;;8.73;;
70997;SDS011;58663;52.040;4.634;2023-07-31T00:23:11;46.35;;;9.23;;
70997;SDS011;58663;52.040;4.634;2023-07-31T00:25:37;45.80;;;10.35;;
70997;SDS011;58663;52.040;4.634;2023-07-31T00:28:02;43.10;;;8.57;;
70997;SDS011;58663;52.040;4.634;2023-07-31T00:30:28;44.60;;;9.55;;
70997;SDS011;58663;52.040;4.634;2023-07-31T00:32:53;52.05;;;10.30;;
70997;SDS011;58663;52.040;4.634;2023-07-31T00:35:18;52.70;;;10.20;;
70997;SDS011;58663;52.040;4.634;2023-07-31T00:37:44;51.35;;;9.15;;
70997;SDS011;58663;52.040;4.634;2023-07-31T00:40:09;46.42;;;9.63;;
70997;SDS011;58663;52.040;4.634;2023-07-31T00:42:35;43.33;;;9.77;;
70997;SDS011;58663;52.040;4.634;2023-07-31T00:45:00;54.30;;;10.25;;
70997;SDS011;58663;52.040;4.634;2023-07-31T00:47:25;52.78;;;9.48;;
70997;SDS011;58663;52.040;4.634;2023-07-31T00:49:51;56.80;;;11.50;;
70997;SDS011;58663;52.040;4.634;2023-07-31T00:52:16;46.95;;;10.00;;
70997;SDS011;58663;52.040;4.634;2023-07-31T00:54:42;37.58;;;9.55;;
70997;SDS011;58663;52.040;4.634;2023-07-31T00:57:07;47.78;;;10.13;;
70997;SDS011;58663;52.040;4.634;2023-07-31T00:59:33;59.80;;;10.68;;
70997;SDS011;58663;52.040;4.634;2023-07-31T01:01:59;50.63;;;10.63;;
70997;SDS011;58663;52.040;4.634;2023-07-31T01:04:24;59.72;;;11.38;;
70997;SDS011;58663;52.040;4.634;2023-07-31T01:12:02;51.38;;;10.57;;
70997;SDS011;58663;52.040;4.634;2023-07-31T01:14:28;48.00;;;9.55;;
70997;SDS011;58663;52.040;4.634;2023-07-31T01:16:54;53.50;;;9.32;;
70997;SDS011;58663;52.040;4.634;2023-07-31T01:19:21;32.33;;;7.53;;
70997;SDS011;58663;52.040;4.634;2023-07-31T01:21:53;33.42;;;8.52;;
70997;SDS011;58663;52.040;4.634;2023-07-31T01:27:04;35.65;;;8.07;;
70997;SDS011;58663;52.040;4.634;2023-07-31T01:29:37;38.75;;;9.18;;
70997;SDS011;58663;52.040;4.634;2023-07-31T01:32:07;36.05;;;8.20;;
70997;SDS011;58663;52.040;4.634;2023-07-31T01:34:34;36.47;;;8.00;;
70997;SDS011;58663;52.040;4.634;2023-07-31T01:37:00;41.65;;;9.70;;
70997;SDS011;58663;52.040;4.634;2023-07-31T01:39:26;41.13;;;9.20;;
70997;SDS011;58663;52.040;4.634;2023-07-31T01:41:51;45.40;;;9.38;;
70997;SDS011;58663;52.040;4.634;2023-07-31T01:44:16;37.47;;;8.88;;
70997;SDS011;58663;52.040;4.634;2023-07-31T01:46:42;51.97;;;10.35;;
70997;SDS011;58663;52.040;4.634;2023-07-31T01:49:07;65.25;;;10.27;;
70997;SDS011;58663;52.040;4.634;2023-07-31T01:51:32;59.72;;;10.88;;
70997;SDS011;58663;52.040;4.634;2023-07-31T01:53:59;61.65;;;11.40;;
70997;SDS011;58663;52.040;4.634;2023-07-31T01:56:25;54.50;;;12.52;;
70997;SDS011;58663;52.040;4.634;2023-07-31T01:58:50;53.67;;;10.63;;
70997;SDS011;58663;52.040;4.634;2023-07-31T02:01:16;42.85;;;9.68;;
70997;SDS011;58663;52.040;4.634;2023-07-31T02:03:41;44.67;;;9.15;;
70997;SDS011;58663;52.040;4.634;2023-07-31T02:06:07;54.15;;;9.82;;
70997;SDS011;58663;52.040;4.634;2023-07-31T02:08:32;51.72;;;9.60;;
70997;SDS011;58663;52.040;4.634;2023-07-31T02:10:58;63.30;;;10.75;;
70997;SDS011;58663;52.040;4.634;2023-07-31T02:13:23;43.83;;;9.30;;
70997;SDS011;58663;52.040;4.634;2023-07-31T02:15:48;55.20;;;10.02;;
70997;SDS011;58663;52.040;4.634;2023-07-31T02:18:14;51.17;;;10.88;;
70997;SDS011;58663;52.040;4.634;2023-07-31T02:20:39;63.13;;;11.05;;
70997;SDS011;58663;52.040;4.634;2023-07-31T02:23:04;47.45;;;10.60;;
70997;SDS011;58663;52.040;4.634;2023-07-31T02:25:30;48.40;;;11.25;;
70997;SDS011;58663;52.040;4.634;2023-07-31T02:27:55;59.90;;;11.32;;
70997;SDS011;58663;52.040;4.634;2023-07-31T02:30:21;54.97;;;11.00;;
70997;SDS011;58663;52.040;4.634;2023-07-31T02:32:46;46.40;;;10.63;;
70997;SDS011;58663;52.040;4.634;2023-07-31T02:35:11;54.40;;;10.65;;
70997;SDS011;58663;52.040;4.634;2023-07-31T02:37:40;48.00;;;11.40;;
70997;SDS011;58663;52.040;4.634;2023-07-31T02:40:06;42.63;;;11.05;;
70997;SDS011;58663;52.040;4.634;2023-07-31T02:42:31;44.75;;;9.68;;
70997;SDS011;58663;52.040;4.634;2023-07-31T02:44:57;46.60;;;10.85;;
70997;SDS011;58663;52.040;4.634;2023-07-31T02:47:22;40.75;;;9.90;;
70997;SDS011;58663;52.040;4.634;2023-07-31T02:49:48;41.60;;;9.43;;
70997;SDS011;58663;52.040;4.634;2023-07-31T02:52:13;44.20;;;10.10;;
70997;SDS011;58663;52.040;4.634;2023-07-31T02:54:38;51.90;;;9.23;;
70997;SDS011;58663;52.040;4.634;2023-07-31T02:57:04;49.70;;;10.13;;
70997;SDS011;58663;52.040;4.634;2023-07-31T02:59:29;42.97;;;9.38;;
70997;SDS011;58663;52.040;4.634;2023-07-31T03:01:55;42.10;;;10.07;;
70997;SDS011;58663;52.040;4.634;2023-07-31T03:04:20;48.78;;;10.00;;
70997;SDS011;58663;52.040;4.634;2023-07-31T03:06:45;37.05;;;8.85;;
70997;SDS011;58663;52.040;4.634;2023-07-31T03:09:11;36.83;;;8.77;;
70997;SDS011;58663;52.040;4.634;2023-07-31T03:11:36;41.00;;;9.50;;
70997;SDS011;58663;52.040;4.634;2023-07-31T03:14:02;44.42;;;9.85;;
70997;SDS011;58663;52.040;4.634;2023-07-31T03:16:27;43.58;;;9.00;;
70997;SDS011;58663;52.040;4.634;2023-07-31T03:18:52;36.63;;;9.98;;
70997;SDS011;58663;52.040;4.634;2023-07-31T03:21:19;40.67;;;8.55;;
70997;SDS011;58663;52.040;4.634;2023-07-31T03:23:44;36.72;;;10.05;;
70997;SDS011;58663;52.040;4.634;2023-07-31T03:26:10;33.42;;;8.57;;
70997;SDS011;58663;52.040;4.634;2023-07-31T03:28:35;37.42;;;8.85;;
70997;SDS011;58663;52.040;4.634;2023-07-31T03:31:01;45.20;;;8.85;;
70997;SDS011;58663;52.040;4.634;2023-07-31T03:33:26;33.75;;;7.85;;
70997;SDS011;58663;52.040;4.634;2023-07-31T03:35:51;35.30;;;8.68;;
70997;SDS011;58663;52.040;4.634;2023-07-31T03:38:17;41.08;;;8.70;;
70997;SDS011;58663;52.040;4.634;2023-07-31T03:40:42;29.75;;;7.72;;
70997;SDS011;58663;52.040;4.634;2023-07-31T03:43:08;34.83;;;8.63;;
70997;SDS011;58663;52.040;4.634;2023-07-31T03:45:33;43.45;;;8.88;;
70997;SDS011;58663;52.040;4.634;2023-07-31T03:47:59;26.83;;;8.88;;
70997;SDS011;58663;52.040;4.634;2023-07-31T03:50:24;36.53;;;8.70;;
70997;SDS011;58663;52.040;4.634;2023-07-31T03:52:50;27.20;;;7.60;;
70997;SDS011;58663;52.040;4.634;2023-07-31T03:55:15;30.00;;;8.40;;
70997;SDS011;58663;52.040;4.634;2023-07-31T03:57:41;32.05;;;8.38;;
70997;SDS011;58663;52.040;4.634;2023-07-31T04:00:06;36.33;;;7.88;;
70997;SDS011;58663;52.040;4.634;2023-07-31T04:02:32;35.08;;;8.00;;
70997;SDS011;58663;52.040;4.634;2023-07-31T04:04:58;39.05;;;8.73;;
70997;SDS011;58663;52.040;4.634;2023-07-31T04:07:23;29.45;;;8.40;;
70997;SDS011;58663;52.040;4.634;2023-07-31T04:09:48;34.67;;;9.52;;
70997;SDS011;58663;52.040;4.634;2023-07-31T04:12:14;29.30;;;9.02;;
70997;SDS011;58663;52.040;4.634;2023-07-31T04:14:39;35.85;;;9.93;;
70997;SDS011;58663;52.040;4.634;2023-07-31T04:17:04;35.38;;;9.73;;
70997;SDS011;58663;52.040;4.634;2023-07-31T04:19:30;34.38;;;9.90;;
70997;SDS011;58663;52.040;4.634;2023-07-31T04:21:55;24.35;;;8.85;;
70997;SDS011;58663;52.040;4.634;2023-07-31T04:24:21;26.73;;;8.48;;
70997;SDS011;58663;52.040;4.634;2023-07-31T04:26:52;26.92;;;8.15;;
70997;SDS011;58663;52.040;4.634;2023-07-31T04:29:17;27.42;;;8.02;;
70997;SDS011;58663;52.040;4.634;2023-07-31T04:31:43;25.42;;;7.90;;
70997;SDS011;58663;52.040;4.634;2023-07-31T04:34:08;20.85;;;6.55;;
70997;SDS011;58663;52.040;4.634;2023-07-31T04:36:34;23.38;;;6.40;;
70997;SDS011;58663;52.040;4.634;2023-07-31T04:39:00;13.80;;;5.50;;
70997;SDS011;58663;52.040;4.634;2023-07-31T04:41:25;17.38;;;5.45;;
70997;SDS011;58663;52.040;4.634;2023-07-31T04:43:51;13.63;;;4.88;;
70997;SDS011;58663;52.040;4.634;2023-07-31T04:46:16;14.10;;;4.78;;
70997;SDS011;58663;52.040;4.634;2023-07-31T04:48:42;10.77;;;4.90;;
70997;SDS011;58663;52.040;4.634;2023-07-31T04:51:07;14.90;;;5.03;;
70997;SDS011;58663;52.040;4.634;2023-07-31T04:53:32;12.23;;;4.47;;
70997;SDS011;58663;52.040;4.634;2023-07-31T04:55:58;12.98;;;5.22;;
70997;SDS011;58663;52.040;4.634;2023-07-31T04:58:23;16.10;;;5.00;;
70997;SDS011;58663;52.040;4.634;2023-07-31T05:00:48;17.55;;;5.63;;
70997;SDS011;58663;52.040;4.634;2023-07-31T05:03:14;15.80;;;5.50;;
70997;SDS011;58663;52.040;4.634;2023-07-31T05:05:39;14.02;;;5.88;;
70997;SDS011;58663;52.040;4.634;2023-07-31T05:08:04;14.45;;;5.60;;
70997;SDS011;58663;52.040;4.634;2023-07-31T05:10:30;20.20;;;6.00;;
70997;SDS011;58663;52.040;4.634;2023-07-31T05:12:56;16.38;;;6.57;;
70997;SDS011;58663;52.040;4.634;2023-07-31T05:15:21;16.80;;;6.50;;
70997;SDS011;58663;52.040;4.634;2023-07-31T05:17:47;16.55;;;6.15;;
70997;SDS011;58663;52.040;4.634;2023-07-31T05:20:12;14.65;;;5.78;;
70997;SDS011;58663;52.040;4.634;2023-07-31T05:22:37;19.73;;;5.85;;
70997;SDS011;58663;52.040;4.634;2023-07-31T05:25:03;19.60;;;5.85;;
70997;SDS011;58663;52.040;4.634;2023-07-31T05:27:29;16.42;;;5.70;;
70997;SDS011;58663;52.040;4.634;2023-07-31T05:29:55;16.35;;;6.00;;
70997;SDS011;58663;52.040;4.634;2023-07-31T05:32:20;16.05;;;5.28;;
70997;SDS011;58663;52.040;4.634;2023-07-31T05:34:45;18.40;;;5.20;;
70997;SDS011;58663;52.040;4.634;2023-07-31T05:37:11;17.20;;;5.47;;
70997;SDS011;58663;52.040;4.634;2023-07-31T05:39:37;15.75;;;4.95;;
70997;SDS011;58663;52.040;4.634;2023-07-31T05:42:02;10.43;;;4.60;;
70997;SDS011;58663;52.040;4.634;2023-07-31T05:44:28;13.48;;;5.30;;
70997;SDS011;58663;52.040;4.634;2023-07-31T05:46:54;14.88;;;5.05;;
70997;SDS011;58663;52.040;4.634;2023-07-31T05:49:19;11.00;;;4.63;;
70997;SDS011;58663;52.040;4.634;2023-07-31T05:51:44;10.68;;;4.85;;
70997;SDS011;58663;52.040;4.634;2023-07-31T05:54:10;11.35;;;4.65;;
70997;SDS011;58663;52.040;4.634;2023-07-31T05:56:35;11.52;;;4.90;;
70997;SDS011;58663;52.040;4.634;2023-07-31T05:59:00;11.45;;;4.30;;
70997;SDS011;58663;52.040;4.634;2023-07-31T06:01:26;11.88;;;4.65;;
70997;SDS011;58663;52.040;4.634;2023-07-31T06:03:51;13.20;;;4.10;;
70997;SDS011;58663;52.040;4.634;2023-07-31T06:06:17;9.88;;;4.25;;
70997;SDS011;58663;52.040;4.634;2023-07-31T06:08:42;14.80;;;4.60;;
70997;SDS011;58663;52.040;4.634;2023-07-31T06:11:07;10.18;;;3.55;;
70997;SDS011;58663;52.040;4.634;2023-07-31T06:13:34;8.77;;;4.35;;
70997;SDS011;58663;52.040;4.634;2023-07-31T06:15:59;7.45;;;4.05;;
70997;SDS011;58663;52.040;4.634;2023-07-31T06:18:25;8.70;;;4.22;;
70997;SDS011;58663;52.040;4.634;2023-07-31T06:20:50;8.73;;;4.10;;
70997;SDS011;58663;52.040;4.634;2023-07-31T06:23:18;8.77;;;4.50;;
70997;SDS011;58663;52.040;4.634;2023-07-31T06:25:47;13.35;;;4.65;;
70997;SDS011;58663;52.040;4.634;2023-07-31T06:28:12;13.25;;;4.43;;
70997;SDS011;58663;52.040;4.634;2023-07-31T06:30:37;9.35;;;3.97;;
70997;SDS011;58663;52.040;4.634;2023-07-31T06:33:03;9.48;;;3.95;;
70997;SDS011;58663;52.040;4.634;2023-07-31T06:35:28;7.57;;;3.65;;
70997;SDS011;58663;52.040;4.634;2023-07-31T06:37:53;8.90;;;3.38;;
70997;SDS011;58663;52.040;4.634;2023-07-31T06:40:19;10.88;;;3.25;;
70997;SDS011;58663;52.040;4.634;2023-07-31T06:42:44;7.90;;;3.75;;
70997;SDS011;58663;52.040;4.634;2023-07-31T06:45:10;7.82;;;3.00;;
70997;SDS011;58663;52.040;4.634;2023-07-31T06:47:35;5.75;;;2.67;;
70997;SDS011;58663;52.040;4.634;2023-07-31T06:50:01;6.15;;;2.90;;
70997;SDS011;58663;52.040;4.634;2023-07-31T06:52:26;7.68;;;2.80;;
70997;SDS011;58663;52.040;4.634;2023-07-31T06:55:02;6.07;;;2.75;;
70997;SDS011;58663;52.040;4.634;2023-07-31T06:57:28;5.07;;;2.60;;
70997;SDS011;58663;52.040;4.634;2023-07-31T06:59:54;6.47;;;2.58;;
70997;SDS011;58663;52.040;4.634;2023-07-31T07:02:19;12.15;;;3.00;;
70997;SDS011;58663;52.040;4.634;2023-07-31T07:04:45;6.18;;;2.63;;
70997;SDS011;58663;52.040;4.634;2023-07-31T07:07:10;7.63;;;2.35;;
70997;SDS011;58663;52.040;4.634;2023-07-31T07:09:35;4.78;;;2.50;;
70997;SDS011;58663;52.040;4.634;2023-07-31T07:12:01;13.25;;;2.53;;
70997;SDS011;58663;52.040;4.634;2023-07-31T07:14:26;3.90;;;2.30;;
70997;SDS011;58663;52.040;4.634;2023-07-31T07:16:51;7.47;;;2.22;;
70997;SDS011;58663;52.040;4.634;2023-07-31T07:19:17;15.43;;;3.60;;
70997;SDS011;58663;52.040;4.634;2023-07-31T07:21:42;17.92;;;3.33;;
70997;SDS011;58663;52.040;4.634;2023-07-31T07:24:07;3.70;;;2.00;;
70997;SDS011;58663;52.040;4.634;2023-07-31T07:26:33;5.55;;;2.30;;
70997;SDS011;58663;52.040;4.634;2023-07-31T07:28:58;3.38;;;2.20;;
70997;SDS011;58663;52.040;4.634;2023-07-31T07:31:26;4.25;;;1.90;;
70997;SDS011;58663;52.040;4.634;2023-07-31T07:33:51;2.08;;;1.60;;
70997;SDS011;58663;52.040;4.634;2023-07-31T07:36:17;3.72;;;1.75;;
70997;SDS011;58663;52.040;4.634;2023-07-31T07:38:42;5.35;;;1.77;;
70997;SDS011;58663;52.040;4.634;2023-07-31T07:41:07;3.00;;;2.05;;
70997;SDS011;58663;52.040;4.634;2023-07-31T07:43:33;2.17;;;1.50;;
70997;SDS011;58663;52.040;4.634;2023-07-31T07:45:58;5.13;;;1.90;;
70997;SDS011;58663;52.040;4.634;2023-07-31T07:48:24;2.67;;;1.75;;
70997;SDS011;58663;52.040;4.634;2023-07-31T07:50:50;3.42;;;1.83;;
70997;SDS011;58663;52.040;4.634;2023-07-31T07:53:15;2.97;;;1.90;;
70997;SDS011;58663;52.040;4.634;2023-07-31T07:55:41;5.00;;;1.77;;
70997;SDS011;58663;52.040;4.634;2023-07-31T07:58:06;4.95;;;1.75;;
70997;SDS011;58663;52.040;4.634;2023-07-31T08:00:32;3.80;;;2.00;;
70997;SDS011;58663;52.040;4.634;2023-07-31T08:02:58;5.50;;;2.05;;
70997;SDS011;58663;52.040;4.634;2023-07-31T08:05:23;3.15;;;1.45;;
70997;SDS011;58663;52.040;4.634;2023-07-31T08:07:49;3.42;;;1.33;;
70997;SDS011;58663;52.040;4.634;2023-07-31T08:10:14;2.70;;;2.40;;
70997;SDS011;58663;52.040;4.634;2023-07-31T08:12:39;2.60;;;1.23;;
70997;SDS011;58663;52.040;4.634;2023-07-31T08:15:05;2.80;;;1.10;;
70997;SDS011;58663;52.040;4.634;2023-07-31T08:17:31;3.42;;;0.95;;
70997;SDS011;58663;52.040;4.634;2023-07-31T08:19:56;1.00;;;0.85;;
70997;SDS011;58663;52.040;4.634;2023-07-31T08:22:23;1.00;;;0.82;;
70997;SDS011;58663;52.040;4.634;2023-07-31T08:24:48;1.35;;;0.90;;
70997;SDS011;58663;52.040;4.634;2023-07-31T08:27:14;2.03;;;1.00;;
70997;SDS011;58663;52.040;4.634;2023-07-31T08:29:39;1.60;;;0.90;;
70997;SDS011;58663;52.040;4.634;2023-07-31T08:32:04;1.20;;;1.10;;
70997;SDS011;58663;52.040;4.634;2023-07-31T08:34:30;1.23;;;1.00;;
70997;SDS011;58663;52.040;4.634;2023-07-31T08:36:55;3.08;;;1.10;;
70997;SDS011;58663;52.040;4.634;2023-07-31T08:39:21;1.88;;;1.17;;
70997;SDS011;58663;52.040;4.634;2023-07-31T08:41:47;1.10;;;1.00;;
70997;SDS011;58663;52.040;4.634;2023-07-31T08:44:12;2.85;;;1.27;;
70997;SDS011;58663;52.040;4.634;2023-07-31T08:46:39;2.35;;;1.10;;
70997;SDS011;58663;52.040;4.634;2023-07-31T08:49:05;1.55;;;1.20;;
70997;SDS011;58663;52.040;4.634;2023-07-31T08:51:34;3.53;;;1.10;;
70997;SDS011;58663;52.040;4.634;2023-07-31T08:54:00;1.38;;;0.90;;
70997;SDS011;58663;52.040;4.634;2023-07-31T08:56:26;1.50;;;1.00;;
70997;SDS011;58663;52.040;4.634;2023-07-31T08:58:52;3.33;;;0.85;;
70997;SDS011;58663;52.040;4.634;2023-07-31T09:01:18;2.55;;;1.30;;
70997;SDS011;58663;52.040;4.634;2023-07-31T09:03:43;3.88;;;1.50;;
70997;SDS011;58663;52.040;4.634;2023-07-31T09:06:09;4.20;;;1.83;;
70997;SDS011;58663;52.040;4.634;2023-07-31T09:08:34;5.63;;;2.10;;
70997;SDS011;58663;52.040;4.634;2023-07-31T09:11:01;8.45;;;2.20;;
70997;SDS011;58663;52.040;4.634;2023-07-31T09:13:29;14.50;;;2.33;;
70997;SDS011;58663;52.040;4.634;2023-07-31T09:15:55;6.82;;;2.20;;
70997;SDS011;58663;52.040;4.634;2023-07-31T09:18:20;4.93;;;2.20;;
70997;SDS011;58663;52.040;4.634;2023-07-31T09:21:00;12.35;;;2.50;;
70997;SDS011;58663;52.040;4.634;2023-07-31T09:23:44;5.53;;;2.83;;
70997;SDS011;58663;52.040;4.634;2023-07-31T09:28:53;13.15;;;3.22;;
70997;SDS011;58663;52.040;4.634;2023-07-31T09:31:30;7.95;;;3.47;;
70997;SDS011;58663;52.040;4.634;2023-07-31T09:34:02;6.55;;;3.85;;
70997;SDS011;58663;52.040;4.634;2023-07-31T09:36:28;11.95;;;3.80;;
70997;SDS011;58663;52.040;4.634;2023-07-31T09:38:55;9.38;;;3.05;;
70997;SDS011;58663;52.040;4.634;2023-07-31T09:41:20;5.43;;;2.35;;
70997;SDS011;58663;52.040;4.634;2023-07-31T09:43:52;7.45;;;2.70;;
70997;SDS011;58663;52.040;4.634;2023-07-31T09:46:18;6.13;;;2.55;;
70997;SDS011;58663;52.040;4.634;2023-07-31T09:48:45;5.40;;;2.58;;
70997;SDS011;58663;52.040;4.634;2023-07-31T09:51:11;2.95;;;2.35;;
70997;SDS011;58663;52.040;4.634;2023-07-31T09:53:37;5.70;;;3.33;;
70997;SDS011;58663;52.040;4.634;2023-07-31T09:56:02;7.22;;;2.50;;
70997;SDS011;58663;52.040;4.634;2023-07-31T09:58:29;3.22;;;2.30;;
70997;SDS011;58663;52.040;4.634;2023-07-31T10:00:55;5.32;;;2.20;;
70997;SDS011;58663;52.040;4.634;2023-07-31T10:03:22;3.30;;;2.55;;
70997;SDS011;58663;52.040;4.634;2023-07-31T10:05:52;5.53;;;2.20;;
70997;SDS011;58663;52.040;4.634;2023-07-31T10:08:19;7.38;;;2.35;;
70997;SDS011;58663;52.040;4.634;2023-07-31T10:10:45;9.98;;;2.50;;
70997;SDS011;58663;52.040;4.634;2023-07-31T10:13:11;6.40;;;2.40;;
70997;SDS011;58663;52.040;4.634;2023-07-31T10:15:37;5.85;;;2.20;;
70997;SDS011;58663;52.040;4.634;2023-07-31T10:18:04;4.50;;;1.70;;
70997;SDS011;58663;52.040;4.634;2023-07-31T10:20:31;5.45;;;1.85;;
70997;SDS011;58663;52.040;4.634;2023-07-31T10:22:57;8.48;;;2.03;;
70997;SDS011;58663;52.040;4.634;2023-07-31T10:25:24;4.47;;;2.03;;
70997;SDS011;58663;52.040;4.634;2023-07-31T10:27:51;3.28;;;1.80;;
70997;SDS011;58663;52.040;4.634;2023-07-31T10:30:19;3.20;;;1.90;;
70997;SDS011;58663;52.040;4.634;2023-07-31T10:32:45;8.30;;;2.83;;
70997;SDS011;58663;52.040;4.634;2023-07-31T10:35:11;9.25;;;2.65;;
70997;SDS011;58663;52.040;4.634;2023-07-31T10:37:41;20.83;;;3.75;;
70997;SDS011;58663;52.040;4.634;2023-07-31T10:40:10;5.68;;;2.47;;
70997;SDS011;58663;52.040;4.634;2023-07-31T10:42:48;6.55;;;2.88;;
70997;SDS011;58663;52.040;4.634;2023-07-31T10:48:00;13.63;;;3.28;;
70997;SDS011;58663;52.040;4.634;2023-07-31T10:50:29;12.60;;;2.80;;
70997;SDS011;58663;52.040;4.634;2023-07-31T10:52:57;10.10;;;3.17;;
70997;SDS011;58663;52.040;4.634;2023-07-31T10:55:28;10.02;;;3.28;;
70997;SDS011;58663;52.040;4.634;2023-07-31T10:57:55;17.95;;;2.95;;
70997;SDS011;58663;52.040;4.634;2023-07-31T11:00:24;10.60;;;3.03;;
70997;SDS011;58663;52.040;4.634;2023-07-31T11:06:00;14.18;;;3.58;;
70997;SDS011;58663;52.040;4.634;2023-07-31T11:13:29;12.20;;;2.72;;
70997;SDS011;58663;52.040;4.634;2023-07-31T11:15:55;11.63;;;2.67;;
70997;SDS011;58663;52.040;4.634;2023-07-31T11:18:20;9.82;;;2.63;;
70997;SDS011;58663;52.040;4.634;2023-07-31T11:20:46;7.80;;;2.53;;
70997;SDS011;58663;52.040;4.634;2023-07-31T11:23:11;18.45;;;3.30;;
70997;SDS011;58663;52.040;4.634;2023-07-31T11:25:38;11.15;;;2.63;;
70997;SDS011;58663;52.040;4.634;2023-07-31T11:28:10;7.65;;;3.13;;
70997;SDS011;58663;52.040;4.634;2023-07-31T11:30:36;9.43;;;2.65;;
70997;SDS011;58663;52.040;4.634;2023-07-31T11:33:02;5.03;;;2.28;;
70997;SDS011;58663;52.040;4.634;2023-07-31T11:35:32;6.88;;;2.75;;
70997;SDS011;58663;52.040;4.634;2023-07-31T11:38:01;8.05;;;2.40;;
70997;SDS011;58663;52.040;4.634;2023-07-31T11:40:28;9.05;;;2.40;;
70997;SDS011;58663;52.040;4.634;2023-07-31T11:42:56;12.23;;;2.58;;
70997;SDS011;58663;52.040;4.634;2023-07-31T11:45:24;7.05;;;2.80;;
70997;SDS011;58663;52.040;4.634;2023-07-31T11:47:50;7.30;;;2.33;;
70997;SDS011;58663;52.040;4.634;2023-07-31T11:50:16;11.48;;;2.85;;
70997;SDS011;58663;52.040;4.634;2023-07-31T11:52:42;8.77;;;2.83;;
70997;SDS011;58663;52.040;4.634;2023-07-31T11:55:09;7.55;;;2.40;;
70997;SDS011;58663;52.040;4.634;2023-07-31T11:57:36;13.73;;;3.42;;
70997;SDS011;58663;52.040;4.634;2023-07-31T12:00:03;6.22;;;2.80;;
70997;SDS011;58663;52.040;4.634;2023-07-31T12:02:29;7.35;;;2.60;;
70997;SDS011;58663;52.040;4.634;2023-07-31T12:04:54;7.82;;;2.50;;
70997;SDS011;58663;52.040;4.634;2023-07-31T12:07:20;8.50;;;2.75;;
70997;SDS011;58663;52.040;4.634;2023-07-31T12:09:55;9.80;;;2.97;;
70997;SDS011;58663;52.040;4.634;2023-07-31T12:12:21;8.25;;;2.70;;
70997;SDS011;58663;52.040;4.634;2023-07-31T12:14:47;9.07;;;2.63;;
70997;SDS011;58663;52.040;4.634;2023-07-31T12:17:13;6.68;;;2.78;;
70997;SDS011;58663;52.040;4.634;2023-07-31T12:19:39;6.38;;;3.22;;
70997;SDS011;58663;52.040;4.634;2023-07-31T12:22:14;8.05;;;2.83;;
70997;SDS011;58663;52.040;4.634;2023-07-31T12:24:42;9.88;;;2.83;;
70997;SDS011;58663;52.040;4.634;2023-07-31T12:27:13;8.73;;;2.80;;
70997;SDS011;58663;52.040;4.634;2023-07-31T12:29:42;4.05;;;2.30;;
70997;SDS011;58663;52.040;4.634;2023-07-31T12:32:23;9.02;;;3.33;;
70997;SDS011;58663;52.040;4.634;2023-07-31T12:34:53;6.15;;;3.30;;
70997;SDS011;58663;52.040;4.634;2023-07-31T12:37:20;7.75;;;3.15;;
70997;SDS011;58663;52.040;4.634;2023-07-31T12:39:46;7.72;;;3.00;;
70997;SDS011;58663;52.040;4.634;2023-07-31T12:42:11;7.75;;;2.78;;
70997;SDS011;58663;52.040;4.634;2023-07-31T12:44:36;8.25;;;2.55;;
70997;SDS011;58663;52.040;4.634;2023-07-31T12:47:02;5.70;;;3.00;;
70997;SDS011;58663;52.040;4.634;2023-07-31T12:49:29;4.68;;;2.85;;
70997;SDS011;58663;52.040;4.634;2023-07-31T12:51:54;4.70;;;2.28;;
70997;SDS011;58663;52.040;4.634;2023-07-31T12:54:19;5.55;;;2.88;;
70997;SDS011;58663;52.040;4.634;2023-07-31T12:56:45;7.07;;;2.60;;
70997;SDS011;58663;52.040;4.634;2023-07-31T12:59:10;5.50;;;3.10;;
70997;SDS011;58663;52.040;4.634;2023-07-31T13:01:35;4.65;;;2.47;;
70997;SDS011;58663;52.040;4.634;2023-07-31T13:04:01;5.68;;;2.28;;
70997;SDS011;58663;52.040;4.634;2023-07-31T13:06:26;4.22;;;2.00;;
70997;SDS011;58663;52.040;4.634;2023-07-31T13:08:51;4.07;;;2.28;;
70997;SDS011;58663;52.040;4.634;2023-07-31T13:11:17;3.53;;;1.70;;
70997;SDS011;58663;52.040;4.634;2023-07-31T13:13:42;4.65;;;1.90;;
70997;SDS011;58663;52.040;4.634;2023-07-31T13:16:07;5.05;;;1.92;;
70997;SDS011;58663;52.040;4.634;2023-07-31T13:18:33;3.92;;;2.20;;
70997;SDS011;58663;52.040;4.634;2023-07-31T13:20:58;3.75;;;1.80;;
70997;SDS011;58663;52.040;4.634;2023-07-31T13:23:23;5.32;;;2.28;;
70997;SDS011;58663;52.040;4.634;2023-07-31T13:25:49;4.68;;;2.42;;
70997;SDS011;58663;52.040;4.634;2023-07-31T13:28:14;5.32;;;2.15;;
70997;SDS011;58663;52.040;4.634;2023-07-31T13:30:39;2.70;;;2.00;;
70997;SDS011;58663;52.040;4.634;2023-07-31T13:33:05;3.30;;;1.50;;
70997;SDS011;58663;52.040;4.634;2023-07-31T13:35:30;3.60;;;1.33;;
70997;SDS011;58663;52.040;4.634;2023-07-31T13:37:56;3.30;;;1.60;;
70997;SDS011;58663;52.040;4.634;2023-07-31T13:40:22;4.65;;;1.45;;
70997;SDS011;58663;52.040;4.634;2023-07-31T13:42:47;2.20;;;1.10;;
70997;SDS011;58663;52.040;4.634;2023-07-31T13:45:13;1.83;;;1.30;;
70997;SDS011;58663;52.040;4.634;2023-07-31T13:47:38;1.08;;;0.95;;
70997;SDS011;58663;52.040;4.634;2023-07-31T13:50:04;2.28;;;1.10;;
70997;SDS011;58663;52.040;4.634;2023-07-31T13:52:29;1.65;;;1.00;;
70997;SDS011;58663;52.040;4.634;2023-07-31T13:54:55;1.50;;;0.90;;
70997;SDS011;58663;52.040;4.634;2023-07-31T13:57:20;1.20;;;0.90;;
70997;SDS011;58663;52.040;4.634;2023-07-31T13:59:46;3.42;;;1.40;;
70997;SDS011;58663;52.040;4.634;2023-07-31T14:02:11;2.80;;;1.30;;
70997;SDS011;58663;52.040;4.634;2023-07-31T14:04:36;1.45;;;1.20;;
70997;SDS011;58663;52.040;4.634;2023-07-31T14:07:02;1.75;;;1.10;;
70997;SDS011;58663;52.040;4.634;2023-07-31T14:09:28;6.38;;;1.58;;
70997;SDS011;58663;52.040;4.634;2023-07-31T14:11:53;1.67;;;0.90;;
70997;SDS011;58663;52.040;4.634;2023-07-31T14:14:19;1.50;;;0.98;;
70997;SDS011;58663;52.040;4.634;2023-07-31T14:16:44;1.10;;;0.90;;
70997;SDS011;58663;52.040;4.634;2023-07-31T14:19:10;0.80;;;0.80;;
70997;SDS011;58663;52.040;4.634;2023-07-31T14:21:35;2.00;;;1.17;;
70997;SDS011;58663;52.040;4.634;2023-07-31T14:24:01;1.88;;;1.02;;
70997;SDS011;58663;52.040;4.634;2023-07-31T14:26:26;1.15;;;1.02;;
70997;SDS011;58663;52.040;4.634;2023-07-31T14:28:51;1.80;;;1.20;;
70997;SDS011;58663;52.040;4.634;2023-07-31T14:31:17;1.50;;;1.40;;
70997;SDS011;58663;52.040;4.634;2023-07-31T14:33:42;2.10;;;1.15;;
70997;SDS011;58663;52.040;4.634;2023-07-31T14:36:08;2.40;;;1.23;;
70997;SDS011;58663;52.040;4.634;2023-07-31T14:38:33;3.50;;;1.50;;
70997;SDS011;58663;52.040;4.634;2023-07-31T14:40:58;1.75;;;1.55;;
70997;SDS011;58663;52.040;4.634;2023-07-31T14:43:24;2.92;;;1.77;;
70997;SDS011;58663;52.040;4.634;2023-07-31T14:45:49;4.10;;;1.50;;
70997;SDS011;58663;52.040;4.634;2023-07-31T14:48:15;2.65;;;1.70;;
70997;SDS011;58663;52.040;4.634;2023-07-31T14:50:40;3.97;;;1.60;;
70997;SDS011;58663;52.040;4.634;2023-07-31T14:53:05;1.73;;;1.20;;
70997;SDS011;58663;52.040;4.634;2023-07-31T14:55:31;1.92;;;1.10;;